createdAt,value
2022-08-11T00:02:03.736Z,71.60
2022-08-11T00:07:06.945Z,72.10
2022-08-11T00:12:16.983Z,72.14
2022-08-11T00:17:19.104Z,73.20
2022-08-11T00:22:22.427Z,72.75
2022-08-11T00:27:35.855Z,73.00
2022-08-11T00:32:38.955Z,73.16
2022-08-11T00:37:48.462Z,73.27
2022-08-11T00:43:07.800Z,73.84
2022-08-11T00:48:24.360Z,74.08
2022-08-11T00:53:28.604Z,74.41
2022-08-11T00:59:13.254Z,73.83
2022-08-11T01:04:55.921Z,74.17
2022-08-11T01:10:11.600Z,74.52
2022-08-11T01:15:29.728Z,74.63
2022-08-11T01:21:05.422Z,73.72
2022-08-11T01:26:45.836Z,73.47
2022-08-11T01:32:11.571Z,73.16
2022-08-11T01:37:50.421Z,73.41
2022-08-11T01:43:50.971Z,74.35
2022-08-11T01:50:08.855Z,74.78
2022-08-11T01:55:14.472Z,74.78
2022-08-11T02:00:29.120Z,74.87
2022-08-11T02:05:49.063Z,74.85
2022-08-11T02:11:28.024Z,75.10
2022-08-11T02:16:57.721Z,74.68
2022-08-11T02:22:27.943Z,75.01
2022-08-11T02:28:05.959Z,74.87
2022-08-11T02:33:24.977Z,74.69
2022-08-11T02:38:31.017Z,74.76
2022-08-11T02:43:48.036Z,74.60
2022-08-11T02:49:23.837Z,75.02
2022-08-11T02:54:43.415Z,75.35
2022-08-11T03:00:00.536Z,75.94
2022-08-11T03:05:17.466Z,75.80
2022-08-11T03:10:34.004Z,75.95
2022-08-11T03:16:07.686Z,75.90
2022-08-11T03:22:01.117Z,76.05
2022-08-11T03:26:53.937Z,76.18
2022-08-11T03:32:06.193Z,76.05
2022-08-11T03:37:38.603Z,75.91
2022-08-11T03:42:50.487Z,75.97
2022-08-11T03:47:55.529Z,75.58
2022-08-11T03:53:16.443Z,75.56
2022-08-11T03:58:27.020Z,75.43
2022-08-11T04:03:47.484Z,75.43
2022-08-11T04:09:27.584Z,75.56
2022-08-11T04:15:09.569Z,75.51
2022-08-11T04:20:14.099Z,75.94
2022-08-11T04:25:58.086Z,75.55
2022-08-11T04:31:50.492Z,75.64
2022-08-11T04:37:34.677Z,75.22
2022-08-11T04:43:19.705Z,75.05
2022-08-11T04:49:04.971Z,74.95
2022-08-11T04:54:47.664Z,74.78
2022-08-11T05:00:31.981Z,74.39
2022-08-11T05:06:07.463Z,73.93
2022-08-11T05:11:22.197Z,74.60
2022-08-11T05:17:09.526Z,75.05
2022-08-11T05:22:31.750Z,75.94
2022-08-11T05:28:06.747Z,76.38
2022-08-11T05:33:31.354Z,75.36
2022-08-11T05:38:54.583Z,75.72
2022-08-11T05:44:22.466Z,75.55
2022-08-11T05:49:47.869Z,75.80
2022-08-11T05:55:10.192Z,74.77
2022-08-11T06:00:14.180Z,74.99
2022-08-11T06:05:16.803Z,75.23
2022-08-11T06:10:28.946Z,73.93
2022-08-11T06:15:32.040Z,73.11
2022-08-11T06:20:46.555Z,72.99
2022-08-11T06:25:49.038Z,72.61
2022-08-11T06:30:50.998Z,71.25
2022-08-11T06:36:08.084Z,71.51
2022-08-11T06:41:38.439Z,72.06
2022-08-11T06:46:47.734Z,72.81
2022-08-11T06:51:49.483Z,72.81
2022-08-11T06:57:29.903Z,72.97
2022-08-11T07:02:37.863Z,72.19
2022-08-11T07:08:46.265Z,71.05
2022-08-11T07:14:10.818Z,71.40
2022-08-11T07:19:36.267Z,69.27
2022-08-11T07:25:23.776Z,67.96
2022-08-11T07:30:26.365Z,67.38
2022-08-11T07:35:38.542Z,65.48
2022-08-11T07:40:42.718Z,65.17
2022-08-11T07:46:04.675Z,63.72
2022-08-11T07:51:25.453Z,60.96
2022-08-11T07:56:55.522Z,61.65
2022-08-11T08:02:09.337Z,59.90
2022-08-11T08:07:29.760Z,56.05
2022-08-11T08:12:51.055Z,57.70
2022-08-11T08:18:09.505Z,55.52
2022-08-11T08:23:33.859Z,53.56
2022-08-11T08:28:36.385Z,53.94
2022-08-11T08:33:42.224Z,53.09
2022-08-11T08:38:49.389Z,51.31
2022-08-11T08:43:55.848Z,49.34
2022-08-11T08:49:02.970Z,44.62
2022-08-11T08:54:37.149Z,45.65
2022-08-11T08:59:48.394Z,43.76
2022-08-11T09:04:51.716Z,43.07
2022-08-11T09:09:56.900Z,41.19
2022-08-11T09:15:03.676Z,40.16
2022-08-11T09:20:12.943Z,39.89
2022-08-11T09:25:33.825Z,40.64
2022-08-11T09:30:36.623Z,39.62
2022-08-11T09:35:42.545Z,39.37
2022-08-11T09:40:52.756Z,40.22
2022-08-11T09:46:00.491Z,38.62
2022-08-11T09:51:03.381Z,37.83
2022-08-11T09:56:29.813Z,36.80
2022-08-11T10:01:40.629Z,37.72
2022-08-11T10:07:04.162Z,38.09
2022-08-11T10:12:14.526Z,38.13
2022-08-11T10:17:18.727Z,38.20
2022-08-11T10:22:39.323Z,37.61
2022-08-11T10:28:17.674Z,37.35
2022-08-11T10:33:36.855Z,35.61
2022-08-11T10:38:40.010Z,34.03
2022-08-11T10:44:01.799Z,33.62
2022-08-11T10:49:04.671Z,33.54
2022-08-11T10:54:24.983Z,35.13
2022-08-11T10:59:28.338Z,34.60
2022-08-11T11:04:42.177Z,35.02
2022-08-11T11:09:47.352Z,33.80
2022-08-11T11:15:17.520Z,35.36
2022-08-11T11:20:41.636Z,35.02
2022-08-11T11:26:07.039Z,33.63
2022-08-11T11:31:36.423Z,34.38
2022-08-11T11:36:58.219Z,34.25
2022-08-11T11:42:03.320Z,32.96
2022-08-11T11:47:06.559Z,31.96
2022-08-11T11:52:09.216Z,33.23
2022-08-11T11:57:33.057Z,32.36
2022-08-11T12:02:35.913Z,30.60
2022-08-11T12:08:12.871Z,30.68
2022-08-11T12:13:36.270Z,31.03
2022-08-11T12:18:39.849Z,30.51
2022-08-11T12:24:04.402Z,29.47
2022-08-11T12:29:09.692Z,30.60
2022-08-11T12:34:17.216Z,30.45
2022-08-11T12:40:10.791Z,29.07
2022-08-11T12:45:28.464Z,31.44
2022-08-11T12:50:49.485Z,29.13
2022-08-11T12:56:11.998Z,29.02
2022-08-11T13:01:32.468Z,29.82
2022-08-11T13:06:34.351Z,29.43
2022-08-11T13:11:57.625Z,30.02
2022-08-11T13:17:19.518Z,30.06
2022-08-11T13:22:24.355Z,29.57
2022-08-11T13:27:26.725Z,29.16
2022-08-11T13:32:29.112Z,30.01
2022-08-11T13:38:18.505Z,29.70
2022-08-11T13:42:53.427Z,29.83
2022-08-11T13:47:59.377Z,30.27
2022-08-11T13:53:01.198Z,28.71
2022-08-11T13:58:06.584Z,29.00
2022-08-11T14:03:25.935Z,29.05
2022-08-11T14:08:49.367Z,29.85
2022-08-11T14:13:53.146Z,29.57
2022-08-11T14:19:00.384Z,29.31
2022-08-11T14:24:04.630Z,29.92
2022-08-11T14:29:10.053Z,29.25
2022-08-11T14:34:14.524Z,30.29
2022-08-11T14:39:18.738Z,29.81
2022-08-11T14:44:39.844Z,28.60
2022-08-11T14:49:58.050Z,29.01
2022-08-11T14:55:25.082Z,29.41
2022-08-11T15:00:27.186Z,28.50
2022-08-11T15:05:29.267Z,28.54
2022-08-11T15:10:31.199Z,28.29
2022-08-11T15:15:53.296Z,28.60
2022-08-11T15:21:14.586Z,28.90
2022-08-11T15:26:45.163Z,28.24
2022-08-11T15:32:06.365Z,28.46
2022-08-11T15:37:27.693Z,29.01
2022-08-11T15:42:49.779Z,29.73
2022-08-11T15:48:05.335Z,29.08
2022-08-11T15:53:31.788Z,28.93
2022-08-11T15:59:41.217Z,30.44
2022-08-11T16:04:27.187Z,30.74
2022-08-11T16:09:37.610Z,30.40
2022-08-11T16:15:12.982Z,31.08
2022-08-11T16:20:17.399Z,31.27
2022-08-11T16:27:04.290Z,30.93
2022-08-11T16:30:46.650Z,31.01
2022-08-11T16:36:08.002Z,31.70
2022-08-11T16:41:37.107Z,31.90
2022-08-11T16:46:57.956Z,32.46
2022-08-11T16:52:10.919Z,32.84
2022-08-11T16:57:35.491Z,33.88
2022-08-11T17:03:01.125Z,33.75
2022-08-11T17:08:26.019Z,34.83
2022-08-11T17:13:36.861Z,37.37
2022-08-11T17:18:47.622Z,35.22
2022-08-11T17:23:55.053Z,34.80
2022-08-11T17:29:01.092Z,35.28
2022-08-11T17:34:21.938Z,35.39
2022-08-11T17:39:29.272Z,37.14
2022-08-11T17:44:51.874Z,38.92
2022-08-11T17:49:54.572Z,39.45
2022-08-11T17:55:15.936Z,40.33
2022-08-11T18:00:38.331Z,41.79
2022-08-11T18:05:44.526Z,42.95
2022-08-11T18:11:06.453Z,43.70
2022-08-11T18:16:28.347Z,44.44
2022-08-11T18:22:13.051Z,45.00
2022-08-11T18:27:35.397Z,44.82
2022-08-11T18:33:22.604Z,45.29
2022-08-11T18:38:41.497Z,45.54
2022-08-11T18:44:06.846Z,45.88
2022-08-11T18:50:02.018Z,46.39
2022-08-11T18:55:18.045Z,47.02
2022-08-11T19:00:38.493Z,47.08
2022-08-11T19:06:31.800Z,47.60
2022-08-11T19:11:42.707Z,47.99
2022-08-11T19:17:05.310Z,48.42
2022-08-11T19:22:27.200Z,48.65
2022-08-11T19:27:48.528Z,49.27
2022-08-11T19:33:10.139Z,49.39
2022-08-11T19:38:31.501Z,49.63
2022-08-11T19:43:53.231Z,49.65
2022-08-11T19:49:15.693Z,49.90
2022-08-11T19:54:36.793Z,49.89
2022-08-11T19:59:57.511Z,49.83
2022-08-11T20:05:17.847Z,50.13
2022-08-11T20:10:40.782Z,50.23
2022-08-11T20:16:02.064Z,50.41
2022-08-11T20:21:29.824Z,50.28
2022-08-11T20:26:54.153Z,50.56
2022-08-11T20:32:14.892Z,50.69
2022-08-11T20:37:36.683Z,50.50
2022-08-11T20:42:58.566Z,50.60
2022-08-11T20:48:23.462Z,50.92
2022-08-11T20:53:45.304Z,51.31
2022-08-11T20:59:18.552Z,51.33
2022-08-11T21:04:53.916Z,51.64
2022-08-11T21:10:23.319Z,51.95
2022-08-11T21:16:03.203Z,52.33
2022-08-11T21:21:26.393Z,52.48
2022-08-11T21:26:50.585Z,52.52
2022-08-11T21:32:13.210Z,52.63
2022-08-11T21:37:35.056Z,53.04
2022-08-11T21:43:00.703Z,53.23
2022-08-11T21:48:23.142Z,53.47
2022-08-11T21:53:45.510Z,53.88
2022-08-11T21:59:08.767Z,53.64
2022-08-11T22:04:30.086Z,54.00
2022-08-11T22:09:50.789Z,54.17
2022-08-11T22:15:11.081Z,54.20
2022-08-11T22:20:31.829Z,54.60
2022-08-11T22:25:57.784Z,54.87
2022-08-11T22:31:21.008Z,55.17
2022-08-11T22:36:41.691Z,55.45
2022-08-11T22:42:01.913Z,55.66
2022-08-11T22:47:23.555Z,55.89
2022-08-11T22:52:49.533Z,56.33
2022-08-11T22:58:12.271Z,56.43
2022-08-11T23:03:37.161Z,56.74
2022-08-11T23:08:59.524Z,57.26
2022-08-11T23:14:21.865Z,57.53
2022-08-11T23:20:06.728Z,58.02
2022-08-11T23:25:23.012Z,58.78
2022-08-11T23:30:43.281Z,58.90
2022-08-11T23:36:08.790Z,59.24
2022-08-11T23:41:31.980Z,59.87
2022-08-11T23:46:52.607Z,59.87
2022-08-11T23:52:13.720Z,60.20
2022-08-11T23:57:33.967Z,60.53
